sensor_id;sensor_type;location;lat;lon;timestamp;temperature;humidity
3602;DHT22;1815;50.950;6.920;2023-04-03T00:00:41;7.20;99.90
3602;DHT22;1815;50.950;6.920;2023-04-03T00:03:07;7.10;99.90
3602;DHT22;1815;50.950;6.920;2023-04-03T00:05:33;7.10;99.90
3602;DHT22;1815;50.950;6.920;2023-04-03T00:07:59;7.10;99.90
3602;DHT22;1815;50.950;6.920;2023-04-03T00:10:26;7.00;99.90
3602;DHT22;1815;50.950;6.920;2023-04-03T00:12:52;7.00;99.90
3602;DHT22;1815;50.950;6.920;2023-04-03T00:15:18;6.90;99.90
3602;DHT22;1815;50.950;6.920;2023-04-03T00:17:43;6.80;99.90
3602;DHT22;1815;50.950;6.920;2023-04-03T00:20:09;6.80;99.90
3602;DHT22;1815;50.950;6.920;2023-04-03T00:22:35;6.70;99.90
3602;DHT22;1815;50.950;6.920;2023-04-03T00:25:01;6.60;99.90
3602;DHT22;1815;50.950;6.920;2023-04-03T00:27:27;6.60;99.90
3602;DHT22;1815;50.950;6.920;2023-04-03T00:29:52;6.50;99.90
3602;DHT22;1815;50.950;6.920;2023-04-03T00:32:18;6.50;99.90
3602;DHT22;1815;50.950;6.920;2023-04-03T00:34:44;6.40;99.90
3602;DHT22;1815;50.950;6.920;2023-04-03T00:37:10;6.30;99.90
3602;DHT22;1815;50.950;6.920;2023-04-03T00:39:36;6.30;99.90
3602;DHT22;1815;50.950;6.920;2023-04-03T00:42:02;6.20;99.90
3602;DHT22;1815;50.950;6.920;2023-04-03T00:46:53;6.10;99.90
3602;DHT22;1815;50.950;6.920;2023-04-03T00:49:19;6.10;99.90
3602;DHT22;1815;50.950;6.920;2023-04-03T00:51:45;6.00;99.90
3602;DHT22;1815;50.950;6.920;2023-04-03T00:54:12;5.90;99.90
3602;DHT22;1815;50.950;6.920;2023-04-03T00:56:38;5.90;99.90
3602;DHT22;1815;50.950;6.920;2023-04-03T00:59:21;5.80;99.90
3602;DHT22;1815;50.950;6.920;2023-04-03T01:01:49;5.80;99.90
3602;DHT22;1815;50.950;6.920;2023-04-03T01:04:40;5.70;99.90
3602;DHT22;1815;50.950;6.920;2023-04-03T01:09:35;5.60;99.90
3602;DHT22;1815;50.950;6.920;2023-04-03T01:12:23;5.50;99.90
3602;DHT22;1815;50.950;6.920;2023-04-03T01:15:00;5.50;99.90
3602;DHT22;1815;50.950;6.920;2023-04-03T01:17:28;5.40;99.90
3602;DHT22;1815;50.950;6.920;2023-04-03T01:20:11;5.40;99.90
3602;DHT22;1815;50.950;6.920;2023-04-03T01:25:34;5.30;99.90
3602;DHT22;1815;50.950;6.920;2023-04-03T01:28:01;5.30;99.90
3602;DHT22;1815;50.950;6.920;2023-04-03T01:30:36;5.30;99.90
3602;DHT22;1815;50.950;6.920;2023-04-03T01:33:06;5.30;99.90
3602;DHT22;1815;50.950;6.920;2023-04-03T01:35:32;5.20;99.90
3602;DHT22;1815;50.950;6.920;2023-04-03T01:37:58;5.20;99.90
3602;DHT22;1815;50.950;6.920;2023-04-03T01:40:25;5.20;99.90
3602;DHT22;1815;50.950;6.920;2023-04-03T01:42:50;5.20;99.90
3602;DHT22;1815;50.950;6.920;2023-04-03T01:45:17;5.10;99.90
3602;DHT22;1815;50.950;6.920;2023-04-03T01:47:42;5.10;99.90
3602;DHT22;1815;50.950;6.920;2023-04-03T01:50:09;5.10;99.90
3602;DHT22;1815;50.950;6.920;2023-04-03T01:52:34;5.10;99.90
3602;DHT22;1815;50.950;6.920;2023-04-03T01:55:00;5.00;99.90
3602;DHT22;1815;50.950;6.920;2023-04-03T01:57:26;5.00;99.90
3602;DHT22;1815;50.950;6.920;2023-04-03T01:59:52;5.00;99.90
3602;DHT22;1815;50.950;6.920;2023-04-03T02:02:18;4.90;99.90
3602;DHT22;1815;50.950;6.920;2023-04-03T02:04:45;4.90;99.90
3602;DHT22;1815;50.950;6.920;2023-04-03T02:07:11;4.80;99.90
3602;DHT22;1815;50.950;6.920;2023-04-03T02:09:37;4.80;99.90
3602;DHT22;1815;50.950;6.920;2023-04-03T02:12:03;4.80;99.90
3602;DHT22;1815;50.950;6.920;2023-04-03T02:14:30;4.70;99.90
3602;DHT22;1815;50.950;6.920;2023-04-03T02:16:55;4.70;99.90
3602;DHT22;1815;50.950;6.920;2023-04-03T02:19:22;4.60;99.90
3602;DHT22;1815;50.950;6.920;2023-04-03T02:21:48;4.60;99.90
3602;DHT22;1815;50.950;6.920;2023-04-03T02:24:14;4.60;99.90
3602;DHT22;1815;50.950;6.920;2023-04-03T02:26:40;4.50;99.90
3602;DHT22;1815;50.950;6.920;2023-04-03T02:29:06;4.50;99.90
3602;DHT22;1815;50.950;6.920;2023-04-03T02:31:32;4.40;99.90
3602;DHT22;1815;50.950;6.920;2023-04-03T02:33:59;4.40;99.90
3602;DHT22;1815;50.950;6.920;2023-04-03T02:36:25;4.40;99.90
3602;DHT22;1815;50.950;6.920;2023-04-03T02:38:55;4.30;99.90
3602;DHT22;1815;50.950;6.920;2023-04-03T02:41:21;4.30;99.90
3602;DHT22;1815;50.950;6.920;2023-04-03T02:43:48;4.20;99.90
3602;DHT22;1815;50.950;6.920;2023-04-03T02:46:15;4.20;99.90
3602;DHT22;1815;50.950;6.920;2023-04-03T02:48:41;4.20;99.90
3602;DHT22;1815;50.950;6.920;2023-04-03T02:51:07;4.20;99.90
3602;DHT22;1815;50.950;6.920;2023-04-03T02:53:33;4.10;99.90
3602;DHT22;1815;50.950;6.920;2023-04-03T02:56:05;4.10;99.90
3602;DHT22;1815;50.950;6.920;2023-04-03T02:58:31;4.10;99.90
3602;DHT22;1815;50.950;6.920;2023-04-03T03:00:58;4.10;99.90
3602;DHT22;1815;50.950;6.920;2023-04-03T03:03:24;4.10;99.90
3602;DHT22;1815;50.950;6.920;2023-04-03T03:05:59;4.00;99.90
3602;DHT22;1815;50.950;6.920;2023-04-03T03:08:26;4.00;99.90
3602;DHT22;1815;50.950;6.920;2023-04-03T03:10:52;4.00;99.90
3602;DHT22;1815;50.950;6.920;2023-04-03T03:13:17;4.00;99.90
3602;DHT22;1815;50.950;6.920;2023-04-03T03:15:43;4.00;99.90
3602;DHT22;1815;50.950;6.920;2023-04-03T03:18:09;4.00;99.90
3602;DHT22;1815;50.950;6.920;2023-04-03T03:20:34;4.00;99.90
3602;DHT22;1815;50.950;6.920;2023-04-03T03:23:00;3.90;99.90
3602;DHT22;1815;50.950;6.920;2023-04-03T03:25:26;3.90;99.90
3602;DHT22;1815;50.950;6.920;2023-04-03T03:27:52;3.90;99.90
3602;DHT22;1815;50.950;6.920;2023-04-03T03:30:18;3.90;99.90
3602;DHT22;1815;50.950;6.920;2023-04-03T03:32:45;3.90;99.90
3602;DHT22;1815;50.950;6.920;2023-04-03T03:35:11;3.90;99.90
3602;DHT22;1815;50.950;6.920;2023-04-03T03:37:37;3.90;99.90
3602;DHT22;1815;50.950;6.920;2023-04-03T03:40:03;3.90;99.90
3602;DHT22;1815;50.950;6.920;2023-04-03T03:42:31;4.00;99.90
3602;DHT22;1815;50.950;6.920;2023-04-03T03:44:56;4.00;99.90
3602;DHT22;1815;50.950;6.920;2023-04-03T03:47:22;4.00;99.90
3602;DHT22;1815;50.950;6.920;2023-04-03T03:49:48;4.00;99.90
3602;DHT22;1815;50.950;6.920;2023-04-03T03:52:15;4.00;99.90
3602;DHT22;1815;50.950;6.920;2023-04-03T03:54:41;4.00;99.90
3602;DHT22;1815;50.950;6.920;2023-04-03T03:57:07;4.00;99.90
3602;DHT22;1815;50.950;6.920;2023-04-03T03:59:33;4.00;99.90
3602;DHT22;1815;50.950;6.920;2023-04-03T04:01:59;4.00;99.90
3602;DHT22;1815;50.950;6.920;2023-04-03T04:04:25;4.10;99.90
3602;DHT22;1815;50.950;6.920;2023-04-03T04:06:50;4.10;99.90
3602;DHT22;1815;50.950;6.920;2023-04-03T04:09:17;4.00;99.90
3602;DHT22;1815;50.950;6.920;2023-04-03T04:11:44;4.00;99.90
3602;DHT22;1815;50.950;6.920;2023-04-03T04:14:11;4.00;99.90
3602;DHT22;1815;50.950;6.920;2023-04-03T04:16:39;4.00;99.90
3602;DHT22;1815;50.950;6.920;2023-04-03T04:19:10;4.00;99.90
3602;DHT22;1815;50.950;6.920;2023-04-03T04:21:38;4.00;99.90
3602;DHT22;1815;50.950;6.920;2023-04-03T04:24:04;4.00;99.90
3602;DHT22;1815;50.950;6.920;2023-04-03T04:26:29;4.00;99.90
3602;DHT22;1815;50.950;6.920;2023-04-03T04:28:55;4.00;99.90
3602;DHT22;1815;50.950;6.920;2023-04-03T04:31:21;4.00;99.90
3602;DHT22;1815;50.950;6.920;2023-04-03T04:33:47;4.00;99.90
3602;DHT22;1815;50.950;6.920;2023-04-03T04:36:14;4.00;99.90
3602;DHT22;1815;50.950;6.920;2023-04-03T04:38:42;4.00;99.90
3602;DHT22;1815;50.950;6.920;2023-04-03T04:41:08;4.00;99.90
3602;DHT22;1815;50.950;6.920;2023-04-03T04:43:34;4.00;99.90
3602;DHT22;1815;50.950;6.920;2023-04-03T04:46:09;4.00;99.90
3602;DHT22;1815;50.950;6.920;2023-04-03T04:48:42;4.00;99.90
3602;DHT22;1815;50.950;6.920;2023-04-03T04:51:10;4.00;99.90
3602;DHT22;1815;50.950;6.920;2023-04-03T04:53:37;4.00;99.90
3602;DHT22;1815;50.950;6.920;2023-04-03T04:56:04;4.00;99.90
3602;DHT22;1815;50.950;6.920;2023-04-03T04:58:32;4.00;99.90
3602;DHT22;1815;50.950;6.920;2023-04-03T05:01:08;4.00;99.90
3602;DHT22;1815;50.950;6.920;2023-04-03T05:03:40;4.00;99.90
3602;DHT22;1815;50.950;6.920;2023-04-03T05:06:06;4.00;99.90
3602;DHT22;1815;50.950;6.920;2023-04-03T05:08:33;4.00;99.90
3602;DHT22;1815;50.950;6.920;2023-04-03T05:11:00;4.00;99.90
3602;DHT22;1815;50.950;6.920;2023-04-03T05:13:27;4.00;99.90
3602;DHT22;1815;50.950;6.920;2023-04-03T05:15:55;4.00;99.90
3602;DHT22;1815;50.950;6.920;2023-04-03T05:18:21;4.00;99.90
3602;DHT22;1815;50.950;6.920;2023-04-03T05:20:51;4.00;99.90
3602;DHT22;1815;50.950;6.920;2023-04-03T05:23:18;4.00;99.90
3602;DHT22;1815;50.950;6.920;2023-04-03T05:25:45;4.10;99.90
3602;DHT22;1815;50.950;6.920;2023-04-03T05:28:13;4.10;99.90
3602;DHT22;1815;50.950;6.920;2023-04-03T05:30:38;4.10;99.90
3602;DHT22;1815;50.950;6.920;2023-04-03T05:33:04;4.10;99.90
3602;DHT22;1815;50.950;6.920;2023-04-03T05:35:40;4.10;99.90
3602;DHT22;1815;50.950;6.920;2023-04-03T05:38:10;4.20;99.90
3602;DHT22;1815;50.950;6.920;2023-04-03T05:40:36;4.20;99.90
3602;DHT22;1815;50.950;6.920;2023-04-03T05:43:02;4.20;99.90
3602;DHT22;1815;50.950;6.920;2023-04-03T05:45:32;4.20;99.90
3602;DHT22;1815;50.950;6.920;2023-04-03T05:47:58;4.20;99.90
3602;DHT22;1815;50.950;6.920;2023-04-03T05:50:24;4.30;99.90
3602;DHT22;1815;50.950;6.920;2023-04-03T05:52:55;4.30;99.90
3602;DHT22;1815;50.950;6.920;2023-04-03T05:55:22;4.40;99.90
3602;DHT22;1815;50.950;6.920;2023-04-03T05:57:48;4.40;99.90
3602;DHT22;1815;50.950;6.920;2023-04-03T06:00:14;4.50;99.90
3602;DHT22;1815;50.950;6.920;2023-04-03T06:02:52;4.50;99.90
3602;DHT22;1815;50.950;6.920;2023-04-03T06:05:22;4.50;99.90
3602;DHT22;1815;50.950;6.920;2023-04-03T06:07:49;4.70;99.90
3602;DHT22;1815;50.950;6.920;2023-04-03T06:10:16;4.70;99.90
3602;DHT22;1815;50.950;6.920;2023-04-03T06:12:42;4.80;99.90
3602;DHT22;1815;50.950;6.920;2023-04-03T06:15:08;4.90;99.90
3602;DHT22;1815;50.950;6.920;2023-04-03T06:17:36;4.90;99.90
3602;DHT22;1815;50.950;6.920;2023-04-03T06:20:03;5.00;99.90
3602;DHT22;1815;50.950;6.920;2023-04-03T06:22:30;5.00;99.90
3602;DHT22;1815;50.950;6.920;2023-04-03T06:24:57;5.10;99.90
3602;DHT22;1815;50.950;6.920;2023-04-03T06:27:23;5.10;99.90
3602;DHT22;1815;50.950;6.920;2023-04-03T06:29:48;5.10;99.90
3602;DHT22;1815;50.950;6.920;2023-04-03T06:32:15;5.20;99.90
3602;DHT22;1815;50.950;6.920;2023-04-03T06:34:41;5.20;99.90
3602;DHT22;1815;50.950;6.920;2023-04-03T06:37:14;5.30;99.90
3602;DHT22;1815;50.950;6.920;2023-04-03T06:39:40;5.30;99.90
3602;DHT22;1815;50.950;6.920;2023-04-03T06:42:07;5.40;99.90
3602;DHT22;1815;50.950;6.920;2023-04-03T06:44:37;5.50;99.90
3602;DHT22;1815;50.950;6.920;2023-04-03T06:47:03;5.60;99.90
3602;DHT22;1815;50.950;6.920;2023-04-03T06:49:29;5.60;99.90
3602;DHT22;1815;50.950;6.920;2023-04-03T06:51:55;5.70;99.90
3602;DHT22;1815;50.950;6.920;2023-04-03T06:54:22;5.80;99.90
3602;DHT22;1815;50.950;6.920;2023-04-03T06:56:48;6.00;99.90
3602;DHT22;1815;50.950;6.920;2023-04-03T06:59:14;6.20;99.90
3602;DHT22;1815;50.950;6.920;2023-04-03T07:01:41;6.80;99.90
3602;DHT22;1815;50.950;6.920;2023-04-03T07:04:07;7.70;99.90
3602;DHT22;1815;50.950;6.920;2023-04-03T07:06:34;8.80;99.90
3602;DHT22;1815;50.950;6.920;2023-04-03T07:09:01;10.00;99.90
3602;DHT22;1815;50.950;6.920;2023-04-03T07:11:27;11.30;99.90
3602;DHT22;1815;50.950;6.920;2023-04-03T07:13:53;12.40;99.90
3602;DHT22;1815;50.950;6.920;2023-04-03T07:16:20;13.60;99.90
3602;DHT22;1815;50.950;6.920;2023-04-03T07:18:46;14.60;99.90
3602;DHT22;1815;50.950;6.920;2023-04-03T07:21:12;15.70;99.90
3602;DHT22;1815;50.950;6.920;2023-04-03T07:23:38;16.60;99.90
3602;DHT22;1815;50.950;6.920;2023-04-03T07:26:04;17.50;99.90
3602;DHT22;1815;50.950;6.920;2023-04-03T07:28:31;18.20;99.90
3602;DHT22;1815;50.950;6.920;2023-04-03T07:31:05;19.00;99.90
3602;DHT22;1815;50.950;6.920;2023-04-03T07:33:34;19.60;99.90
3602;DHT22;1815;50.950;6.920;2023-04-03T07:36:01;20.10;99.90
3602;DHT22;1815;50.950;6.920;2023-04-03T07:38:27;20.40;99.90
3602;DHT22;1815;50.950;6.920;2023-04-03T07:40:53;20.80;99.90
3602;DHT22;1815;50.950;6.920;2023-04-03T07:43:20;21.30;99.90
3602;DHT22;1815;50.950;6.920;2023-04-03T07:45:47;21.40;96.70
3602;DHT22;1815;50.950;6.920;2023-04-03T07:48:20;21.50;95.90
3602;DHT22;1815;50.950;6.920;2023-04-03T07:50:46;21.50;94.00
3602;DHT22;1815;50.950;6.920;2023-04-03T07:53:12;21.40;91.80
3602;DHT22;1815;50.950;6.920;2023-04-03T07:55:38;21.30;86.00
3602;DHT22;1815;50.950;6.920;2023-04-03T07:58:13;21.50;87.30
3602;DHT22;1815;50.950;6.920;2023-04-03T08:00:40;21.70;87.10
3602;DHT22;1815;50.950;6.920;2023-04-03T08:03:07;21.90;90.50
3602;DHT22;1815;50.950;6.920;2023-04-03T08:05:41;22.20;91.50
3602;DHT22;1815;50.950;6.920;2023-04-03T08:08:09;22.60;84.60
3602;DHT22;1815;50.950;6.920;2023-04-03T08:10:35;22.90;90.20
3602;DHT22;1815;50.950;6.920;2023-04-03T08:13:01;23.30;83.40
3602;DHT22;1815;50.950;6.920;2023-04-03T08:15:27;23.70;86.30
3602;DHT22;1815;50.950;6.920;2023-04-03T08:17:54;24.00;78.70
3602;DHT22;1815;50.950;6.920;2023-04-03T08:20:21;24.00;72.80
3602;DHT22;1815;50.950;6.920;2023-04-03T08:22:47;24.00;69.30
3602;DHT22;1815;50.950;6.920;2023-04-03T08:25:13;24.00;67.20
3602;DHT22;1815;50.950;6.920;2023-04-03T08:27:38;24.20;71.40
3602;DHT22;1815;50.950;6.920;2023-04-03T08:30:05;24.40;70.90
3602;DHT22;1815;50.950;6.920;2023-04-03T08:32:33;24.60;71.70
3602;DHT22;1815;50.950;6.920;2023-04-03T08:34:59;24.50;57.60
3602;DHT22;1815;50.950;6.920;2023-04-03T08:37:36;24.10;58.30
3602;DHT22;1815;50.950;6.920;2023-04-03T08:40:04;24.00;61.10
3602;DHT22;1815;50.950;6.920;2023-04-03T08:45:29;24.20;61.00
3602;DHT22;1815;50.950;6.920;2023-04-03T08:48:26;24.30;56.60
3602;DHT22;1815;50.950;6.920;2023-04-03T08:50:56;24.40;52.80
3602;DHT22;1815;50.950;6.920;2023-04-03T08:53:27;24.60;61.80
3602;DHT22;1815;50.950;6.920;2023-04-03T08:55:55;24.80;61.60
3602;DHT22;1815;50.950;6.920;2023-04-03T08:58:27;24.90;61.40
3602;DHT22;1815;50.950;6.920;2023-04-03T09:03:32;24.80;55.50
3602;DHT22;1815;50.950;6.920;2023-04-03T09:06:26;24.90;58.10
3602;DHT22;1815;50.950;6.920;2023-04-03T09:17:15;24.70;50.40
3602;DHT22;1815;50.950;6.920;2023-04-03T09:22:32;23.80;47.70
3602;DHT22;1815;50.950;6.920;2023-04-03T09:25:05;23.50;45.50
3602;DHT22;1815;50.950;6.920;2023-04-03T09:27:34;23.20;48.50
3602;DHT22;1815;50.950;6.920;2023-04-03T09:30:00;23.00;45.90
3602;DHT22;1815;50.950;6.920;2023-04-03T09:32:34;23.20;48.20
3602;DHT22;1815;50.950;6.920;2023-04-03T09:35:28;23.30;48.00
3602;DHT22;1815;50.950;6.920;2023-04-03T09:38:20;23.60;48.70
3602;DHT22;1815;50.950;6.920;2023-04-03T09:43:32;24.00;47.50
3602;DHT22;1815;50.950;6.920;2023-04-03T09:46:25;23.80;44.00
3602;DHT22;1815;50.950;6.920;2023-04-03T09:49:02;24.00;47.50
3602;DHT22;1815;50.950;6.920;2023-04-03T09:51:29;24.00;47.00
3602;DHT22;1815;50.950;6.920;2023-04-03T09:53:55;24.20;46.40
3602;DHT22;1815;50.950;6.920;2023-04-03T09:56:25;24.00;43.90
3602;DHT22;1815;50.950;6.920;2023-04-03T09:59:13;24.10;46.10
3602;DHT22;1815;50.950;6.920;2023-04-03T10:01:43;24.10;40.20
3602;DHT22;1815;50.950;6.920;2023-04-03T10:04:17;24.00;43.30
3602;DHT22;1815;50.950;6.920;2023-04-03T10:06:45;23.90;43.20
3602;DHT22;1815;50.950;6.920;2023-04-03T10:09:36;23.90;42.30
3602;DHT22;1815;50.950;6.920;2023-04-03T10:12:09;23.80;41.30
3602;DHT22;1815;50.950;6.920;2023-04-03T10:14:42;23.80;39.10
3602;DHT22;1815;50.950;6.920;2023-04-03T10:20:26;23.10;38.70
3602;DHT22;1815;50.950;6.920;2023-04-03T10:25:46;22.20;34.60
3602;DHT22;1815;50.950;6.920;2023-04-03T10:31:25;21.90;37.30
3602;DHT22;1815;50.950;6.920;2023-04-03T10:37:14;21.70;33.10
3602;DHT22;1815;50.950;6.920;2023-04-03T10:43:42;21.00;32.70
3602;DHT22;1815;50.950;6.920;2023-04-03T10:49:32;19.80;32.10
3602;DHT22;1815;50.950;6.920;2023-04-03T10:57:31;19.30;37.00
3602;DHT22;1815;50.950;6.920;2023-04-03T10:59:59;19.10;36.00
3602;DHT22;1815;50.950;6.920;2023-04-03T11:02:56;19.20;37.70
3602;DHT22;1815;50.950;6.920;2023-04-03T11:05:39;19.30;38.80
3602;DHT22;1815;50.950;6.920;2023-04-03T11:08:13;19.70;39.20
3602;DHT22;1815;50.950;6.920;2023-04-03T11:10:51;20.00;38.00
3602;DHT22;1815;50.950;6.920;2023-04-03T11:13:35;19.90;36.70
3602;DHT22;1815;50.950;6.920;2023-04-03T11:16:02;19.70;35.60
3602;DHT22;1815;50.950;6.920;2023-04-03T11:18:37;19.40;36.70
3602;DHT22;1815;50.950;6.920;2023-04-03T11:23:45;19.20;33.00
3602;DHT22;1815;50.950;6.920;2023-04-03T11:26:14;19.10;36.80
3602;DHT22;1815;50.950;6.920;2023-04-03T11:28:41;18.90;35.90
3602;DHT22;1815;50.950;6.920;2023-04-03T11:31:16;18.80;35.60
3602;DHT22;1815;50.950;6.920;2023-04-03T11:36:51;18.90;38.30
3602;DHT22;1815;50.950;6.920;2023-04-03T11:39:23;19.10;38.20
3602;DHT22;1815;50.950;6.920;2023-04-03T11:41:51;19.10;37.60
3602;DHT22;1815;50.950;6.920;2023-04-03T11:44:36;19.20;37.30
3602;DHT22;1815;50.950;6.920;2023-04-03T11:47:04;19.10;35.70
3602;DHT22;1815;50.950;6.920;2023-04-03T12:05:53;18.00;33.10
3602;DHT22;1815;50.950;6.920;2023-04-03T12:26:41;17.80;37.90
3602;DHT22;1815;50.950;6.920;2023-04-03T12:29:19;17.70;37.00
3602;DHT22;1815;50.950;6.920;2023-04-03T12:34:56;17.70;37.60
3602;DHT22;1815;50.950;6.920;2023-04-03T12:40:43;17.40;37.20
3602;DHT22;1815;50.950;6.920;2023-04-03T12:46:04;17.30;37.20
3602;DHT22;1815;50.950;6.920;2023-04-03T12:48:46;17.30;37.80
3602;DHT22;1815;50.950;6.920;2023-04-03T12:51:27;17.30;37.50
3602;DHT22;1815;50.950;6.920;2023-04-03T12:54:01;17.10;35.80
3602;DHT22;1815;50.950;6.920;2023-04-03T12:56:32;17.00;35.40
3602;DHT22;1815;50.950;6.920;2023-04-03T12:59:20;16.60;35.10
3602;DHT22;1815;50.950;6.920;2023-04-03T13:02:00;16.30;35.50
3602;DHT22;1815;50.950;6.920;2023-04-03T13:04:28;16.10;35.80
3602;DHT22;1815;50.950;6.920;2023-04-03T13:06:55;15.90;34.10
3602;DHT22;1815;50.950;6.920;2023-04-03T13:11:55;15.60;35.00
3602;DHT22;1815;50.950;6.920;2023-04-03T13:14:23;15.30;34.40
3602;DHT22;1815;50.950;6.920;2023-04-03T13:19:20;14.80;35.10
3602;DHT22;1815;50.950;6.920;2023-04-03T13:21:47;14.50;35.00
3602;DHT22;1815;50.950;6.920;2023-04-03T13:24:15;14.30;34.70
3602;DHT22;1815;50.950;6.920;2023-04-03T13:26:41;14.10;35.20
3602;DHT22;1815;50.950;6.920;2023-04-03T13:29:31;13.80;34.80
3602;DHT22;1815;50.950;6.920;2023-04-03T13:31:59;13.60;35.10
3602;DHT22;1815;50.950;6.920;2023-04-03T13:34:29;13.50;35.40
3602;DHT22;1815;50.950;6.920;2023-04-03T13:37:00;13.40;35.50
3602;DHT22;1815;50.950;6.920;2023-04-03T13:39:35;13.20;34.80
3602;DHT22;1815;50.950;6.920;2023-04-03T13:42:20;13.10;35.10
3602;DHT22;1815;50.950;6.920;2023-04-03T13:44:47;12.90;34.20
3602;DHT22;1815;50.950;6.920;2023-04-03T13:47:22;12.80;35.40
3602;DHT22;1815;50.950;6.920;2023-04-03T13:52:50;12.70;36.30
3602;DHT22;1815;50.950;6.920;2023-04-03T13:55:22;12.70;36.40
3602;DHT22;1815;50.950;6.920;2023-04-03T13:57:57;12.60;36.80
3602;DHT22;1815;50.950;6.920;2023-04-03T14:00:49;12.60;36.80
3602;DHT22;1815;50.950;6.920;2023-04-03T14:03:22;12.60;37.00
3602;DHT22;1815;50.950;6.920;2023-04-03T14:05:49;12.60;36.90
3602;DHT22;1815;50.950;6.920;2023-04-03T14:08:15;12.60;37.30
3602;DHT22;1815;50.950;6.920;2023-04-03T14:10:42;12.60;37.60
3602;DHT22;1815;50.950;6.920;2023-04-03T14:13:13;12.60;37.70
3602;DHT22;1815;50.950;6.920;2023-04-03T14:15:39;12.60;36.50
3602;DHT22;1815;50.950;6.920;2023-04-03T14:18:06;12.60;37.60
3602;DHT22;1815;50.950;6.920;2023-04-03T14:20:31;12.50;37.40
3602;DHT22;1815;50.950;6.920;2023-04-03T14:22:57;12.50;37.50
3602;DHT22;1815;50.950;6.920;2023-04-03T14:25:24;12.50;38.00
3602;DHT22;1815;50.950;6.920;2023-04-03T14:27:52;12.40;37.30
3602;DHT22;1815;50.950;6.920;2023-04-03T14:30:26;12.50;38.40
3602;DHT22;1815;50.950;6.920;2023-04-03T14:32:53;12.50;38.20
3602;DHT22;1815;50.950;6.920;2023-04-03T14:35:19;12.50;38.00
3602;DHT22;1815;50.950;6.920;2023-04-03T14:37:46;12.50;38.50
3602;DHT22;1815;50.950;6.920;2023-04-03T14:40:19;12.50;37.70
3602;DHT22;1815;50.950;6.920;2023-04-03T14:42:45;12.50;38.40
3602;DHT22;1815;50.950;6.920;2023-04-03T14:45:13;12.50;39.00
3602;DHT22;1815;50.950;6.920;2023-04-03T14:47:51;12.60;39.90
3602;DHT22;1815;50.950;6.920;2023-04-03T14:50:23;12.60;39.20
3602;DHT22;1815;50.950;6.920;2023-04-03T14:52:51;12.60;39.20
3602;DHT22;1815;50.950;6.920;2023-04-03T14:55:18;12.60;39.00
3602;DHT22;1815;50.950;6.920;2023-04-03T14:57:45;12.70;39.40
3602;DHT22;1815;50.950;6.920;2023-04-03T15:00:18;12.60;39.50
3602;DHT22;1815;50.950;6.920;2023-04-03T15:02:46;12.60;39.80
3602;DHT22;1815;50.950;6.920;2023-04-03T15:05:16;12.70;40.20
3602;DHT22;1815;50.950;6.920;2023-04-03T15:07:48;12.80;40.30
3602;DHT22;1815;50.950;6.920;2023-04-03T15:10:21;12.80;40.30
3602;DHT22;1815;50.950;6.920;2023-04-03T15:12:48;12.80;40.00
3602;DHT22;1815;50.950;6.920;2023-04-03T15:15:16;12.80;39.90
3602;DHT22;1815;50.950;6.920;2023-04-03T15:17:42;12.70;38.40
3602;DHT22;1815;50.950;6.920;2023-04-03T15:22:38;12.70;39.50
3602;DHT22;1815;50.950;6.920;2023-04-03T15:25:04;12.70;39.90
3602;DHT22;1815;50.950;6.920;2023-04-03T15:27:30;12.80;40.30
3602;DHT22;1815;50.950;6.920;2023-04-03T15:29:56;12.80;40.40
3602;DHT22;1815;50.950;6.920;2023-04-03T15:32:22;12.70;40.00
3602;DHT22;1815;50.950;6.920;2023-04-03T15:34:47;12.70;40.20
3602;DHT22;1815;50.950;6.920;2023-04-03T15:37:13;12.70;39.40
3602;DHT22;1815;50.950;6.920;2023-04-03T15:39:39;12.60;39.70
3602;DHT22;1815;50.950;6.920;2023-04-03T15:42:04;12.60;40.20
3602;DHT22;1815;50.950;6.920;2023-04-03T15:44:33;12.60;40.50
3602;DHT22;1815;50.950;6.920;2023-04-03T15:47:00;12.60;40.40
3602;DHT22;1815;50.950;6.920;2023-04-03T15:49:26;12.60;40.60
3602;DHT22;1815;50.950;6.920;2023-04-03T15:51:53;12.70;40.80
3602;DHT22;1815;50.950;6.920;2023-04-03T15:54:19;12.70;40.80
3602;DHT22;1815;50.950;6.920;2023-04-03T15:56:44;12.70;41.10
3602;DHT22;1815;50.950;6.920;2023-04-03T15:59:10;12.70;41.00
3602;DHT22;1815;50.950;6.920;2023-04-03T16:01:37;12.60;41.00
3602;DHT22;1815;50.950;6.920;2023-04-03T16:04:04;12.60;41.10
3602;DHT22;1815;50.950;6.920;2023-04-03T16:06:29;12.60;40.50
3602;DHT22;1815;50.950;6.920;2023-04-03T16:08:56;12.50;40.50
3602;DHT22;1815;50.950;6.920;2023-04-03T16:11:24;12.50;40.50
3602;DHT22;1815;50.950;6.920;2023-04-03T16:13:50;12.50;40.90
3602;DHT22;1815;50.950;6.920;2023-04-03T16:16:16;12.50;41.10
3602;DHT22;1815;50.950;6.920;2023-04-03T16:18:42;12.40;41.20
3602;DHT22;1815;50.950;6.920;2023-04-03T16:21:08;12.40;41.10
3602;DHT22;1815;50.950;6.920;2023-04-03T16:23:34;12.40;41.20
3602;DHT22;1815;50.950;6.920;2023-04-03T16:26:00;12.40;41.50
3602;DHT22;1815;50.950;6.920;2023-04-03T16:28:26;12.40;41.40
3602;DHT22;1815;50.950;6.920;2023-04-03T16:30:52;12.30;41.70
3602;DHT22;1815;50.950;6.920;2023-04-03T16:33:18;12.30;41.60
3602;DHT22;1815;50.950;6.920;2023-04-03T16:35:47;12.30;41.90
3602;DHT22;1815;50.950;6.920;2023-04-03T16:38:14;12.30;42.00
3602;DHT22;1815;50.950;6.920;2023-04-03T16:40:40;12.30;41.90
3602;DHT22;1815;50.950;6.920;2023-04-03T16:43:07;12.20;41.60
3602;DHT22;1815;50.950;6.920;2023-04-03T16:45:32;12.10;41.80
3602;DHT22;1815;50.950;6.920;2023-04-03T16:47:58;12.10;41.90
3602;DHT22;1815;50.950;6.920;2023-04-03T16:50:24;12.00;41.90
3602;DHT22;1815;50.950;6.920;2023-04-03T16:52:50;12.00;42.00
3602;DHT22;1815;50.950;6.920;2023-04-03T16:55:15;12.00;42.20
3602;DHT22;1815;50.950;6.920;2023-04-03T16:57:41;11.90;42.00
3602;DHT22;1815;50.950;6.920;2023-04-03T17:00:08;11.80;42.10
3602;DHT22;1815;50.950;6.920;2023-04-03T17:02:33;11.80;42.30
3602;DHT22;1815;50.950;6.920;2023-04-03T17:04:59;11.70;42.30
3602;DHT22;1815;50.950;6.920;2023-04-03T17:07:25;11.70;42.30
3602;DHT22;1815;50.950;6.920;2023-04-03T17:09:52;11.60;42.30
3602;DHT22;1815;50.950;6.920;2023-04-03T17:12:20;11.60;42.50
3602;DHT22;1815;50.950;6.920;2023-04-03T17:14:45;11.50;42.40
3602;DHT22;1815;50.950;6.920;2023-04-03T17:17:16;11.40;42.30
3602;DHT22;1815;50.950;6.920;2023-04-03T17:19:44;11.30;42.40
3602;DHT22;1815;50.950;6.920;2023-04-03T17:22:10;11.30;42.60
3602;DHT22;1815;50.950;6.920;2023-04-03T17:24:36;11.20;42.60
3602;DHT22;1815;50.950;6.920;2023-04-03T17:27:02;11.20;42.60
3602;DHT22;1815;50.950;6.920;2023-04-03T17:29:28;11.20;42.80
3602;DHT22;1815;50.950;6.920;2023-04-03T17:31:54;11.10;42.80
3602;DHT22;1815;50.950;6.920;2023-04-03T17:34:20;11.00;42.70
3602;DHT22;1815;50.950;6.920;2023-04-03T17:36:46;10.90;42.70
3602;DHT22;1815;50.950;6.920;2023-04-03T17:39:12;10.90;42.80
3602;DHT22;1815;50.950;6.920;2023-04-03T17:41:38;10.90;42.90
3602;DHT22;1815;50.950;6.920;2023-04-03T17:44:04;10.80;42.90
3602;DHT22;1815;50.950;6.920;2023-04-03T17:46:30;10.80;43.00
3602;DHT22;1815;50.950;6.920;2023-04-03T17:48:57;10.70;42.80
3602;DHT22;1815;50.950;6.920;2023-04-03T17:51:27;10.60;42.90
3602;DHT22;1815;50.950;6.920;2023-04-03T17:53:53;10.50;43.00
3602;DHT22;1815;50.950;6.920;2023-04-03T17:56:24;10.50;43.10
3602;DHT22;1815;50.950;6.920;2023-04-03T17:58:53;10.50;43.30
3602;DHT22;1815;50.950;6.920;2023-04-03T18:01:21;10.40;43.30
3602;DHT22;1815;50.950;6.920;2023-04-03T18:03:49;10.30;43.30
3602;DHT22;1815;50.950;6.920;2023-04-03T18:06:18;10.30;43.40
3602;DHT22;1815;50.950;6.920;2023-04-03T18:08:50;10.20;43.40
3602;DHT22;1815;50.950;6.920;2023-04-03T18:11:16;10.10;43.50